Victory, Vermont
Current Conditions -  °F | °C
As of 12:35 AM on Thursday 27 Nov 2014 (Local Time) from KCDA Reporting Station
Light Snow Light Snow  
Wind Chill: 20°   Ceiling: 1200
Heat Index: 28°   Visibility: 2mi
Dew Point: 25°   Wind: 8mph
Humidity: 86%   Direction: 300°WNW
Pressure: 29.84"   Gusts: NA
Location:  44.5627°N, 71.7775°W
Report Text: KCDA 270535Z AUTO 30007KT 2SM -SN OVC012 M02/M04 A2984 RMK AO2 T10201041
Loading
Personal Weather Stations






























Interactive Weather Map New forecast layout! Learn more

10-Day Weather Forecast

Advertisements
Track Severe Weather on mobile